Terminal Aerodrome Forecast
Issued by NWS

Home | Current Version | Previous Version | Text Only | Print | Product List | Glossary On
Versions: 1 2 3 4 5 6 7 8 9 10 11 12 13 14 15 16 17 18 19 20 21 22 23 24 25 26 27 28 29 30 31 32 33 34
453
FTUS42 KRAH 200540
TAFRWI
TAF
KRWI 200540Z 2006/2106 17010G18KT P6SM SCT015 BKN050
     FM200800 20012G22KT P6SM SCT045
     FM202100 20015G27KT P6SM BKN040
     FM210300 23010G22KT P6SM BKN060=

USA.gov is the U.S. government's official web portal to all federal, state and local government web resources and services.